Time;durP1;ratioP1;P1;durP2;ratioP2;P2;SDS_P1;SDS_P2;PMS_P1;PMS_P2;Temp;Humidity;BMP_temperature;BMP_pressure;BME280_temperature;BME280_humidity;BME280_pressure;Samples;Min_cycle;Max_cycle;Signal;HPM_P1;HPM_P2
2021/11/10 00:00:57;;;;;;;58.03;31.40;;;;;;;2.92;100.00;102120.41;5093885;28;20397;-75
2021/11/10 00:03:27;;;;;;;58.10;31.55;;;;;;;2.83;100.00;102122.16;5094116;28;20123;-75
2021/11/10 00:05:55;;;;;;;61.33;32.80;;;;;;;2.74;100.00;102116.88;5093643;28;20127;-76
2021/11/10 00:08:24;;;;;;;57.20;31.17;;;;;;;2.80;100.00;102122.16;5093705;28;20040;-75
2021/11/10 00:10:52;;;;;;;54.67;32.30;;;;;;;2.73;100.00;102120.41;5093692;28;20043;-75
2021/11/10 00:13:20;;;;;;;58.60;32.78;;;;;;;2.71;100.00;102116.00;5093917;28;20062;-75
2021/11/10 00:15:50;;;;;;;59.03;33.13;;;;;;;2.73;100.00;102120.41;5093603;28;20131;-75
2021/11/10 00:18:19;;;;;;;62.60;32.17;;;;;;;2.69;100.00;102113.34;5093338;28;20071;-75
2021/11/10 00:20:50;;;;;;;59.67;31.48;;;;;;;2.87;100.00;102109.84;5093070;28;20050;-75
2021/11/10 00:23:18;;;;;;;62.25;33.80;;;;;;;3.06;100.00;102113.38;5093134;28;20101;-75
2021/11/10 00:25:46;;;;;;;58.42;33.38;;;;;;;3.07;100.00;102113.38;5093401;28;20043;-75
2021/11/10 00:28:14;;;;;;;58.30;32.90;;;;;;;3.03;100.00;102114.28;5093339;28;20040;-75
2021/11/10 00:30:43;;;;;;;60.05;33.28;;;;;;;2.96;100.00;102107.22;5093350;28;20047;-75
2021/11/10 00:33:11;;;;;;;64.20;33.65;;;;;;;2.91;100.00;102109.00;5093266;28;20040;-75
2021/11/10 00:35:40;;;;;;;65.78;34.22;;;;;;;2.95;100.00;102104.59;5093475;28;20063;-75
2021/11/10 00:38:10;;;;;;;55.50;30.45;;;;;;;3.13;100.00;102109.88;5092935;28;20044;-77
2021/11/10 00:40:39;;;;;;;62.67;33.70;;;;;;;2.93;100.00;102114.28;5093967;28;20119;-77
2021/11/10 00:43:08;;;;;;;59.60;33.42;;;;;;;2.87;100.00;102104.59;5092847;28;20044;-77
2021/11/10 00:45:36;;;;;;;63.40;33.45;;;;;;;2.83;100.00;102102.84;5093494;28;20078;-76
2021/11/10 00:48:06;;;;;;;61.80;33.70;;;;;;;2.81;100.00;102108.09;5092966;28;20050;-76
2021/11/10 00:50:35;;;;;;;60.70;33.53;;;;;;;2.78;100.00;102104.56;5093331;28;20044;-77
2021/11/10 00:53:05;;;;;;;64.18;31.90;;;;;;;2.86;100.00;102114.25;5092876;28;20415;-77
2021/11/10 00:55:35;;;;;;;56.92;32.47;;;;;;;2.80;100.00;102100.22;5093117;28;20078;-77
2021/11/10 00:58:06;;;;;;;60.33;32.00;;;;;;;2.72;100.00;102097.56;5092688;28;20044;-75
2021/11/10 01:00:34;;;;;;;62.85;32.63;;;;;;;2.72;100.00;102089.66;5093055;28;20400;-75
2021/11/10 01:03:03;;;;;;;63.83;33.20;;;;;;;2.71;100.00;102087.91;5092904;28;20104;-76
2021/11/10 01:05:33;;;;;;;63.08;32.88;;;;;;;2.73;100.00;102088.78;5093214;28;20465;-74
2021/11/10 01:08:02;;;;;;;59.83;33.58;;;;;;;2.58;100.00;102080.81;5091488;28;20504;-74
2021/11/10 01:10:30;;;;;;;59.72;32.22;;;;;;;2.46;100.00;102084.31;5093227;28;20127;-74
2021/11/10 01:13:01;;;;;;;61.13;32.22;;;;;;;2.46;100.00;102089.59;5092852;28;20397;-75
2021/11/10 01:15:29;;;;;;;61.55;32.97;;;;;;;2.34;100.00;102089.56;5092975;28;20036;-74
2021/11/10 01:17:58;;;;;;;64.20;33.25;;;;;;;2.25;100.00;102079.00;5092511;28;20071;-75
2021/11/10 01:20:26;;;;;;;61.92;33.10;;;;;;;2.12;100.00;102090.34;5092732;28;20048;-75
2021/11/10 01:22:54;;;;;;;64.38;33.85;;;;;;;2.10;100.00;102082.44;5092776;28;20043;-75
2021/11/10 01:25:27;;;;;;;56.10;31.65;;;;;;;2.23;100.00;102079.00;5093187;28;20048;-75
2021/11/10 01:27:56;;;;;;;59.53;32.55;;;;;;;2.15;100.00;102088.63;5092916;28;20043;-76
2021/11/10 01:30:25;;;;;;;62.13;33.15;;;;;;;2.26;100.00;102075.50;5093766;28;20485;-77
2021/11/10 01:32:54;;;;;;;59.78;31.23;;;;;;;2.33;100.00;102073.78;5097008;28;20159;-75
2021/11/10 01:35:24;;;;;;;58.50;32.05;;;;;;;2.39;100.00;102071.13;5097179;28;20050;-75
2021/11/10 01:37:52;;;;;;;50.33;29.17;;;;;;;2.52;100.00;102065.91;5096945;28;20044;-76
2021/11/10 01:40:22;;;;;;;61.00;32.55;;;;;;;2.50;100.00;102069.38;5096548;28;20036;-75
2021/11/10 01:42:51;;;;;;;57.90;30.67;;;;;;;2.34;100.00;102065.88;5096867;28;20040;-75
2021/11/10 01:45:20;;;;;;;62.30;32.63;;;;;;;2.37;100.00;102070.25;5096427;28;20036;-76
2021/11/10 01:47:50;;;;;;;58.13;31.98;;;;;;;2.37;100.00;102062.34;5096667;28;20384;-75
2021/11/10 01:50:19;;;;;;;57.03;32.28;;;;;;;2.34;100.00;102062.34;5096331;28;20049;-75
2021/11/10 01:52:51;;;;;;;60.25;32.05;;;;;;;2.46;100.00;102065.00;5096187;28;20044;-75
2021/11/10 01:55:20;;;;;;;55.78;29.70;;;;;;;2.46;100.00;102052.72;5095995;28;20071;-76
2021/11/10 01:57:48;;;;;;;57.10;30.80;;;;;;;2.41;100.00;102051.81;5096281;28;20047;-75
2021/11/10 02:00:19;;;;;;;55.72;31.58;;;;;;;2.37;100.00;102049.19;5095911;28;20040;-76
2021/11/10 02:02:49;;;;;;;54.00;29.08;;;;;;;2.29;100.00;102044.78;5096583;28;20044;-75
2021/11/10 02:05:20;;;;;;;61.30;31.90;;;;;;;2.37;100.00;102050.06;5095884;28;20044;-75
2021/11/10 02:07:49;;;;;;;54.78;31.23;;;;;;;2.31;100.00;102036.88;5096360;28;20048;-74
2021/11/10 02:10:20;;;;;;;56.33;30.83;;;;;;;2.24;100.00;102048.28;5096008;28;20397;-75
2021/11/10 02:12:49;;;;;;;56.95;30.88;;;;;;;2.16;100.00;102032.47;5096242;28;20036;-75
2021/11/10 02:15:19;;;;;;;57.58;31.23;;;;;;;2.16;100.00;102043.00;5095910;28;20123;-75
2021/11/10 02:17:50;;;;;;;58.67;32.17;;;;;;;2.14;100.00;102036.84;5096505;28;20067;-75
2021/11/10 02:20:19;;;;;;;59.35;32.53;;;;;;;2.08;100.00;102039.47;5095590;28;20040;-75
2021/11/10 02:22:51;;;;;;;54.67;31.00;;;;;;;2.18;100.00;102035.97;5095916;28;20047;-75
2021/11/10 02:25:20;;;;;;;57.50;29.10;;;;;;;2.16;100.00;102032.47;5095516;28;20073;-75
2021/11/10 02:27:49;;;;;;;54.20;29.13;;;;;;;2.15;100.00;102029.84;5095603;28;20093;-75
2021/11/10 02:30:19;;;;;;;53.55;31.05;;;;;;;2.15;100.00;102025.44;5095607;28;20094;-76
2021/11/10 02:32:51;;;;;;;56.15;29.50;;;;;;;2.13;100.00;102026.31;5096016;28;20046;-76
2021/11/10 02:35:20;;;;;;;49.72;29.60;;;;;;;1.97;100.00;102026.25;5095605;28;20044;-75
2021/11/10 02:37:53;;;;;;;55.03;29.23;;;;;;;1.99;100.00;102024.50;5095773;28;20047;-76
2021/11/10 02:40:23;;;;;;;55.33;29.30;;;;;;;1.95;100.00;102032.41;5095526;28;20040;-76
2021/11/10 02:42:53;;;;;;;55.65;30.38;;;;;;;1.93;100.00;102032.41;5095198;28;20047;-75
2021/11/10 02:45:21;;;;;;;53.38;30.58;;;;;;;1.88;100.00;102041.13;5095021;28;20089;-76
2021/11/10 02:47:50;;;;;;;49.47;28.17;;;;;;;1.89;100.00;102037.63;5095520;28;20040;-76
2021/11/10 02:50:19;;;;;;;51.17;29.50;;;;;;;1.93;100.00;102034.13;5094972;28;20382;-75
2021/11/10 02:52:47;;;;;;;56.20;30.00;;;;;;;2.02;100.00;102039.41;5095322;28;20493;-76
2021/11/10 02:55:17;;;;;;;54.75;29.85;;;;;;;2.00;100.00;102030.66;5095115;28;20074;-78
2021/11/10 02:57:45;;;;;;;53.72;30.35;;;;;;;2.00;100.00;102036.78;5095305;28;20048;-78
2021/11/10 03:00:14;;;;;;;55.17;29.38;;;;;;;2.08;100.00;102034.19;5094833;28;20123;-78
2021/11/10 03:02:42;;;;;;;50.05;28.52;;;;;;;1.97;100.00;102035.91;5095114;28;20044;-78
2021/11/10 03:05:10;;;;;;;52.58;29.27;;;;;;;1.80;100.00;102037.59;5094723;28;20063;-79
2021/11/10 03:07:39;;;;;;;51.95;29.08;;;;;;;1.82;100.00;102038.47;5095110;28;20123;-77
2021/11/10 03:10:07;;;;;;;48.35;28.63;;;;;;;1.94;100.00;102030.66;5095100;28;20093;-77
2021/11/10 03:12:37;;;;;;;48.53;26.38;;;;;;;2.04;100.00;102021.03;5095123;28;20040;-75
2021/11/10 03:15:07;;;;;;;49.97;27.50;;;;;;;2.04;100.00;102034.19;5095069;28;20040;-79
2021/11/10 03:17:36;;;;;;;50.65;28.45;;;;;;;1.89;100.00;102041.13;5095356;28;20417;-74
2021/11/10 03:20:05;;;;;;;50.28;26.60;;;;;;;1.92;100.00;102029.75;5093635;28;20052;-72
2021/11/10 03:22:36;;;;;;;51.97;28.08;;;;;;;1.79;100.00;102030.56;5095013;28;20048;-76
2021/11/10 03:25:05;;;;;;;53.30;28.10;;;;;;;1.89;100.00;102022.72;5094882;28;20044;-74
2021/11/10 03:27:33;;;;;;;52.05;28.25;;;;;;;1.79;100.00;102025.31;5094728;28;20461;-75
2021/11/10 03:30:05;;;;;;;50.85;27.50;;;;;;;1.71;100.00;102018.25;5094746;28;20039;-74
2021/11/10 03:32:34;;;;;;;48.25;26.58;;;;;;;1.66;100.00;102020.00;5094610;28;20044;-74
2021/11/10 03:35:02;;;;;;;48.83;27.20;;;;;;;1.68;100.00;102034.03;5094732;28;20044;-75
2021/11/10 03:37:30;;;;;;;51.88;28.63;;;;;;;1.63;100.00;102033.13;5094337;28;20051;-74
2021/11/10 03:39:59;;;;;;;54.28;27.70;;;;;;;1.61;100.00;102042.75;5094292;28;20427;-74
2021/11/10 03:42:27;;;;;;;52.78;27.80;;;;;;;1.62;100.00;102036.63;5093126;28;20878;-77
2021/11/10 03:44:55;;;;;;;44.60;26.20;;;;;;;1.68;100.00;102036.66;5094457;28;20040;-78
2021/11/10 03:47:25;;;;;;;49.75;27.13;;;;;;;1.52;100.00;102033.94;5093840;28;20044;-77
2021/11/10 03:49:53;;;;;;;53.45;26.92;;;;;;;1.35;100.00;102037.38;5094390;28;20040;-75
2021/11/10 03:52:21;;;;;;;49.33;26.70;;;;;;;1.44;100.00;102036.53;5093812;28;20048;-75
2021/11/10 03:54:50;;;;;;;50.53;27.50;;;;;;;1.57;100.00;102035.75;5093539;28;20075;-76
2021/11/10 03:57:18;;;;;;;45.88;27.40;;;;;;;1.55;100.00;102037.50;5093688;28;20105;-76
2021/11/10 03:59:47;;;;;;;48.33;26.95;;;;;;;1.48;100.00;102033.06;5094272;28;20071;-75
2021/11/10 04:02:15;;;;;;;48.85;27.23;;;;;;;1.46;100.00;102032.19;5093854;28;20071;-75
2021/11/10 04:04:45;;;;;;;50.65;28.23;;;;;;;1.39;100.00;102035.66;5094198;28;20044;-75
2021/11/10 04:07:13;;;;;;;47.40;25.70;;;;;;;1.55;100.00;102021.72;5093698;28;20040;-76
2021/11/10 04:09:42;;;;;;;53.03;27.42;;;;;;;1.56;100.00;102028.72;5093890;28;20067;-76
2021/11/10 04:12:10;;;;;;;48.22;26.05;;;;;;;1.47;100.00;102023.41;5093646;28;20044;-77
2021/11/10 04:14:38;;;;;;;46.45;26.08;;;;;;;1.56;100.00;102023.47;5093839;28;20123;-77
2021/11/10 04:17:09;;;;;;;48.90;25.92;;;;;;;1.57;100.00;102019.97;5093555;28;20044;-76
2021/11/10 04:19:37;;;;;;;47.60;26.10;;;;;;;1.54;100.00;102014.66;5094138;28;20044;-78
2021/11/10 04:22:08;;;;;;;50.88;27.35;;;;;;;1.55;100.00;102016.44;5092346;28;20052;-73
2021/11/10 04:24:37;;;;;;;43.58;25.17;;;;;;;1.53;100.00;102012.91;5093896;28;20491;-76
2021/11/10 04:27:05;;;;;;;43.90;25.73;;;;;;;1.57;100.00;102019.97;5093319;28;20520;-76
2021/11/10 04:29:34;;;;;;;46.47;26.92;;;;;;;1.52;100.00;102015.53;5093199;28;20135;-73
2021/11/10 04:32:03;;;;;;;46.65;26.08;;;;;;;1.48;100.00;102012.03;5092357;28;20183;-78
2021/11/10 04:34:31;;;;;;;44.22;25.08;;;;;;;1.69;100.00;102008.63;5093331;28;20370;-77
2021/11/10 04:36:59;;;;;;;45.45;25.77;;;;;;;1.54;100.00;102003.28;5093256;28;20048;-76
2021/11/10 04:39:29;;;;;;;52.97;27.67;;;;;;;1.42;100.00;102006.72;5093232;28;20043;-78
2021/11/10 04:41:57;;;;;;;46.60;25.63;;;;;;;1.28;100.00;102005.78;5093085;28;20481;-78
2021/11/10 04:44:26;;;;;;;48.40;26.30;;;;;;;1.38;100.00;102002.34;5092830;28;20044;-78
2021/11/10 04:46:56;;;;;;;46.35;25.08;;;;;;;1.38;100.00;102008.47;5093448;28;20046;-78
2021/11/10 04:49:27;;;;;;;47.33;26.15;;;;;;;1.35;100.00;102002.28;5093083;28;20036;-78
2021/11/10 04:51:57;;;;;;;45.92;26.40;;;;;;;1.33;100.00;101998.78;5093145;28;20040;-78
2021/11/10 04:54:30;;;;;;;44.58;25.75;;;;;;;1.23;100.00;101999.59;5093078;28;20195;-78
2021/11/10 04:57:00;;;;;;;48.88;26.58;;;;;;;1.23;100.00;102004.88;5093392;28;20422;-78
2021/11/10 04:59:30;;;;;;;40.15;24.20;;;;;;;1.24;100.00;102004.88;5092979;28;20054;-78
2021/11/10 05:04:47;;;;;;;48.08;25.15;;;;;;;0.93;100.00;102003.78;5092514;28;20040;-78
2021/11/10 05:07:15;;;;;;;45.17;25.52;;;;;;;0.83;100.00;102008.09;5092658;28;20058;-77
2021/11/10 05:09:44;;;;;;;48.67;25.83;;;;;;;0.71;100.00;102000.13;5093037;28;20113;-76
2021/11/10 05:12:13;;;;;;;51.20;27.48;;;;;;;0.80;100.00;101999.31;5091841;28;20048;-76
2021/11/10 05:14:43;;;;;;;44.75;25.80;;;;;;;0.81;100.00;101993.19;5092915;28;20044;-76
2021/11/10 05:17:12;;;;;;;48.53;27.05;;;;;;;0.81;100.00;101987.94;5092815;28;20509;-74
2021/11/10 05:19:40;;;;;;;49.33;27.98;;;;;;;0.84;100.00;101978.31;5093064;28;20040;-74
2021/11/10 05:22:29;;;;;;;46.15;26.17;;;;;;;0.94;100.00;101975.75;5092565;28;20044;-74
2021/11/10 05:24:58;;;;;;;44.95;25.77;;;;;;;0.88;100.00;101987.13;5093079;28;20040;-74
2021/11/10 05:27:29;;;;;;;45.13;26.48;;;;;;;0.91;100.00;101987.16;5092323;28;20040;-74
2021/11/10 05:29:57;;;;;;;45.70;27.08;;;;;;;0.72;100.00;101988.75;5092825;28;20072;-74
2021/11/10 05:32:25;;;;;;;50.15;27.25;;;;;;;0.74;100.00;101996.63;5092591;28;20048;-76
2021/11/10 05:34:58;;;;;;;48.60;26.70;;;;;;;0.65;100.00;102000.06;5092902;28;20044;-75
2021/11/10 05:37:28;;;;;;;48.20;27.20;;;;;;;0.56;100.00;102006.13;5092639;28;20131;-74
2021/11/10 05:39:56;;;;;;;43.97;25.55;;;;;;;0.71;100.00;101997.50;5092961;28;20048;-76
2021/11/10 05:42:27;;;;;;;46.70;26.77;;;;;;;0.70;100.00;102000.13;5092262;28;20385;-74
2021/11/10 05:44:57;;;;;;;42.83;26.23;;;;;;;0.76;100.00;101994.91;5092517;28;20044;-75
2021/11/10 05:47:25;;;;;;;48.03;26.73;;;;;;;0.72;100.00;102001.00;5092448;28;20093;-75
2021/11/10 05:49:53;;;;;;;51.00;26.77;;;;;;;0.69;100.00;102004.50;5092464;28;20089;-75
2021/11/10 05:52:21;;;;;;;49.15;26.17;;;;;;;0.55;100.00;102006.13;5092090;28;20520;-75
2021/11/10 05:54:49;;;;;;;44.53;26.17;;;;;;;0.62;100.00;102013.19;5092414;28;20075;-74
2021/11/10 05:57:18;;;;;;;45.80;25.75;;;;;;;0.66;100.00;102000.94;5092128;28;20428;-77
2021/11/10 05:59:46;;;;;;;46.92;26.98;;;;;;;0.70;100.00;102015.88;5092664;28;20048;-76
2021/11/10 06:02:15;;;;;;;45.97;25.70;;;;;;;0.77;100.00;102008.06;5092555;28;20377;-75
2021/11/10 06:04:44;;;;;;;48.10;26.63;;;;;;;0.72;100.00;102017.66;5092613;28;20495;-75
2021/11/10 06:07:13;;;;;;;42.97;25.05;;;;;;;0.72;100.00;102022.03;5092447;28;20047;-76
2021/11/10 06:09:41;;;;;;;50.80;27.30;;;;;;;0.75;100.00;102019.41;5091841;28;20066;-75
2021/11/10 06:12:11;;;;;;;49.13;25.25;;;;;;;0.83;100.00;102034.38;5092535;28;20040;-75
2021/11/10 06:14:39;;;;;;;47.97;25.60;;;;;;;0.82;100.00;102026.47;5092187;28;20508;-77
2021/11/10 06:17:07;;;;;;;47.30;25.92;;;;;;;0.93;100.00;102027.44;5093020;28;20036;-76
2021/11/10 06:19:37;;;;;;;46.17;25.80;;;;;;;1.02;100.00;102024.88;5095312;28;20118;-76
2021/11/10 06:22:06;;;;;;;40.80;24.88;;;;;;;0.91;100.00;102021.31;5096187;28;20048;-74
2021/11/10 06:24:34;;;;;;;43.35;25.67;;;;;;;0.96;100.00;102014.31;5095525;28;20135;-73
2021/11/10 06:27:03;;;;;;;45.15;26.73;;;;;;;1.07;100.00;102032.81;5095806;28;20051;-74
2021/11/10 06:29:31;;;;;;;46.17;27.02;;;;;;;0.94;100.00;102026.56;5095463;28;20401;-75
2021/11/10 06:31:59;;;;;;;47.28;26.27;;;;;;;1.13;100.00;102022.31;5095901;28;20546;-75
2021/11/10 06:34:29;;;;;;;45.97;27.02;;;;;;;1.09;100.00;102025.81;5094402;28;20447;-76
2021/11/10 06:36:58;;;;;;;45.75;26.48;;;;;;;1.19;100.00;102022.38;5095550;28;20497;-75
2021/11/10 06:39:26;;;;;;;45.50;26.95;;;;;;;1.18;100.00;102025.88;5095068;28;20511;-74
2021/11/10 06:41:57;;;;;;;46.30;26.42;;;;;;;1.24;100.00;102031.16;5095489;28;20040;-74
2021/11/10 06:44:25;;;;;;;45.33;25.58;;;;;;;1.32;100.00;102032.09;5094907;28;20044;-76
2021/11/10 06:46:53;;;;;;;45.17;26.08;;;;;;;1.31;100.00;102027.69;5095449;28;20040;-75
2021/11/10 06:49:21;;;;;;;48.08;25.67;;;;;;;1.23;100.00;102039.03;5094583;28;20048;-77
2021/11/10 06:51:50;;;;;;;52.97;27.10;;;;;;;1.29;100.00;102039.97;5095024;28;20036;-75
2021/11/10 06:54:19;;;;;;;50.40;26.90;;;;;;;1.55;100.00;102032.25;5054733;28;20045;-75
2021/11/10 06:56:48;;;;;;;46.40;25.98;;;;;;;1.65;100.00;102034.03;5054874;28;20044;-75
2021/11/10 06:59:20;;;;;;;45.50;26.33;;;;;;;1.81;100.00;102040.22;5054903;28;20112;-77
2021/11/10 07:01:48;;;;;;;48.83;26.58;;;;;;;1.68;100.00;102039.31;5054597;28;20063;-77
2021/11/10 07:04:17;;;;;;;48.10;26.98;;;;;;;1.82;100.00;102041.09;5054829;28;20049;-77
2021/11/10 07:06:45;;;;;;;50.97;28.58;;;;;;;1.80;100.00;102042.84;5054421;28;20429;-79
2021/11/10 07:09:13;;;;;;;50.10;28.98;;;;;;;1.91;100.00;102028.88;5053575;28;20049;-77
2021/11/10 07:11:43;;;;;;;48.63;27.55;;;;;;;2.00;100.00;102041.19;5054249;28;20036;-78
2021/11/10 07:14:11;;;;;;;57.92;29.13;;;;;;;1.99;100.00;102044.69;5054602;28;20041;-78
2021/11/10 07:16:40;;;;;;;59.10;29.00;;;;;;;2.03;100.00;102046.47;5054420;28;20052;-78
2021/11/10 07:19:08;;;;;;;50.22;27.23;;;;;;;2.15;100.00;102046.50;5054672;28;20045;-78
2021/11/10 07:21:36;;;;;;;52.90;28.98;;;;;;;2.27;100.00;102040.38;5053979;28;20502;-79
2021/11/10 07:24:05;;;;;;;54.05;28.90;;;;;;;2.26;100.00;102039.50;5054061;28;20044;-78
2021/11/10 07:26:34;;;;;;;54.22;28.77;;;;;;;2.40;100.00;102033.38;5054109;28;20103;-76
2021/11/10 07:29:04;;;;;;;48.40;27.85;;;;;;;2.63;100.00;102038.69;5054285;28;20033;-75
2021/11/10 07:31:33;;;;;;;56.08;29.20;;;;;;;2.59;100.00;102037.78;5054030;28;20049;-73
2021/11/10 07:34:06;;;;;;;54.65;28.38;;;;;;;2.86;100.00;102037.81;5052789;28;20041;-76
2021/11/10 07:36:34;;;;;;;53.65;29.27;;;;;;;2.74;100.00;102037.81;5052532;28;20041;-73
2021/11/10 07:39:03;;;;;;;50.35;28.42;;;;;;;2.86;100.00;102042.22;5051710;28;20043;-69
2021/11/10 07:41:33;;;;;;;58.65;30.13;;;;;;;3.11;100.00;102043.09;5053446;28;20049;-73
2021/11/10 07:44:03;;;;;;;53.15;28.85;;;;;;;3.27;100.00;102043.94;5053475;28;20040;-73
2021/11/10 07:46:32;;;;;;;52.88;29.83;;;;;;;3.35;100.00;102036.88;5053320;28;20041;-70
2021/11/10 07:49:01;;;;;;;51.65;29.58;;;;;;;3.29;100.00;102045.69;5053453;28;20048;-69
2021/11/10 07:51:29;;;;;;;56.33;31.15;;;;;;;3.31;100.00;102041.28;5053355;28;20037;-69
2021/11/10 07:54:00;;;;;;;55.05;30.40;;;;;;;3.38;100.00;102042.19;5087734;28;20058;-70
2021/11/10 07:56:28;;;;;;;56.85;29.63;;;;;;;3.37;100.00;102043.91;5093605;28;20040;-71
2021/11/10 07:58:56;;;;;;;53.63;28.63;;;;;;;3.50;100.00;102049.16;5093572;28;20135;-68
2021/11/10 08:01:30;;;;;;;56.75;28.95;;;;;;;3.59;100.00;102046.50;5093530;28;20142;-68
2021/11/10 08:04:02;;;;;;;53.40;30.33;;;;;;;3.52;100.00;102044.75;5096077;28;20477;-71
2021/11/10 08:06:31;;;;;;;51.75;29.35;;;;;;;3.52;100.00;102050.91;5093371;28;20044;-74
2021/11/10 08:09:00;;;;;;;52.83;31.25;;;;;;;3.56;100.00;102057.06;5093148;28;20139;-70
2021/11/10 08:11:28;;;;;;;55.03;30.15;;;;;;;3.47;100.00;102043.88;5093524;28;20040;-69
2021/11/10 08:13:57;;;;;;;58.10;32.17;;;;;;;3.51;100.00;102048.28;5092626;28;20039;-72
2021/11/10 08:16:25;;;;;;;57.63;31.88;;;;;;;3.58;100.00;102050.03;5092690;28;20128;-68
2021/11/10 08:18:55;;;;;;;59.20;32.85;;;;;;;3.61;100.00;102047.38;5092389;28;20044;-71
2021/11/10 08:21:28;;;;;;;60.63;32.38;;;;;;;3.65;100.00;102047.34;5092960;28;20048;-68
2021/11/10 08:23:58;;;;;;;54.63;29.83;;;;;;;3.75;100.00;102042.91;5092193;28;20110;-73
2021/11/10 08:26:26;;;;;;;60.00;31.45;;;;;;;3.80;100.00;102041.16;5092586;28;20051;-69
2021/11/10 08:28:55;;;;;;;54.83;30.45;;;;;;;3.89;100.00;102032.31;5092257;28;20090;-71
2021/11/10 08:31:23;;;;;;;55.03;30.58;;;;;;;3.99;100.00;102037.56;5092399;28;20105;-71
2021/11/10 08:33:52;;;;;;;58.08;29.85;;;;;;;4.23;100.00;102046.22;5092045;28;20106;-72
2021/11/10 08:36:22;;;;;;;56.17;32.05;;;;;;;4.23;100.00;102038.28;5092562;28;20090;-72
2021/11/10 08:38:50;;;;;;;55.80;31.33;;;;;;;4.27;100.00;102040.94;5092368;28;20048;-70
2021/11/10 08:41:20;;;;;;;54.00;29.63;;;;;;;4.52;100.00;102041.63;5092115;28;20127;-69
2021/11/10 08:43:51;;;;;;;56.88;31.80;;;;;;;4.73;100.00;102040.63;5092527;28;20437;-70
2021/11/10 08:46:21;;;;;;;57.35;30.90;;;;;;;4.91;100.00;102030.75;5092414;28;20558;-71
2021/11/10 08:48:50;;;;;;;53.50;29.52;;;;;;;5.15;100.00;102035.84;5092244;28;20097;-69
2021/11/10 08:51:19;;;;;;;53.78;30.38;;;;;;;5.29;100.00;102035.69;5092576;28;20172;-70
2021/11/10 08:53:50;;;;;;;50.58;29.15;;;;;;;5.50;100.00;102032.84;5092156;28;20229;-70
2021/11/10 08:56:18;;;;;;;53.38;28.88;;;;;;;5.78;100.00;102035.16;5092582;28;20121;-72
2021/11/10 08:58:47;;;;;;;53.08;25.85;;;;;;;6.04;100.00;102035.75;5092340;28;20097;-72
2021/11/10 09:01:17;;;;;;;44.10;25.67;;;;;;;6.15;100.00;102028.53;5092628;28;20048;-71
2021/11/10 09:03:45;;;;;;;46.58;24.27;;;;;;;6.17;100.00;102032.03;5092088;28;20040;-71
2021/11/10 09:06:14;;;;;;;43.78;24.27;;;;;;;6.29;100.00;102031.00;5092449;28;20066;-71
2021/11/10 09:08:43;;;;;;;42.78;23.70;;;;;;;6.28;100.00;102032.78;5092055;28;20079;-70
2021/11/10 09:11:14;;;;;;;41.83;23.95;;;;;;;6.15;100.00;102025.88;5092396;28;20051;-70
2021/11/10 09:13:43;;;;;;;46.40;24.48;;;;;;;6.27;100.00;102032.78;5092063;28;20060;-70
2021/11/10 09:16:12;;;;;;;50.78;26.15;;;;;;;6.30;100.00;102032.75;5092251;28;20040;-68
2021/11/10 09:18:40;;;;;;;45.72;24.70;;;;;;;6.20;100.00;102032.00;5092343;28;20146;-70
2021/11/10 09:21:11;;;;;;;46.05;24.85;;;;;;;6.32;100.00;102025.66;5091161;28;20063;-70
2021/11/10 09:23:39;;;;;;;42.10;24.23;;;;;;;6.24;100.00;102023.09;5091857;28;20051;-70
2021/11/10 09:26:07;;;;;;;48.55;26.20;;;;;;;6.25;100.00;102021.31;5091782;28;20132;-71
2021/11/10 09:28:37;;;;;;;43.97;24.70;;;;;;;6.21;100.00;102015.22;5092361;28;20044;-68
2021/11/10 09:31:06;;;;;;;45.85;26.17;;;;;;;6.24;100.00;102007.19;5093268;28;20101;-68
2021/11/10 09:33:40;;;;;;;42.78;24.75;;;;;;;6.34;100.00;102015.03;5094239;28;20079;-69
2021/11/10 09:36:09;;;;;;;42.35;24.42;;;;;;;6.21;100.00;102003.72;5093209;28;20074;-70
2021/11/10 09:38:37;;;;;;;45.50;25.40;;;;;;;6.27;100.00;102004.53;5092966;28;20045;-68
2021/11/10 09:41:08;;;;;;;46.20;23.77;;;;;;;6.34;100.00;102013.25;5091470;28;20051;-70
2021/11/10 09:43:40;;;;;;;46.90;25.77;;;;;;;6.27;100.00;101996.56;5091785;28;20050;-74
2021/11/10 09:46:13;;;;;;;44.72;24.40;;;;;;;6.20;100.00;101994.03;5091218;28;20046;-72
2021/11/10 09:48:42;;;;;;;;;;;;;;;6.46;100.00;102001.56;5092049;28;20040;-70
2021/11/10 09:51:10;;;;;;;46.85;25.25;;;;;;;6.36;100.00;102002.63;5090394;28;19920;-70
2021/11/10 09:53:39;;;;;;;46.42;25.17;;;;;;;6.38;100.00;102001.72;5094509;28;20056;-73
2021/11/10 09:56:08;;;;;;;47.47;25.55;;;;;;;6.35;100.00;101995.56;5093814;28;20060;-70
2021/11/10 09:58:39;;;;;;;46.95;26.48;;;;;;;6.55;100.00;101997.00;5094831;28;20052;-71
2021/11/10 10:01:09;;;;;;;47.75;26.13;;;;;;;6.63;100.00;101983.63;5090600;28;20043;-71
2021/11/10 10:03:39;;;;;;;48.83;25.92;;;;;;;6.70;100.00;101989.72;5116107;27;20120;-71
2021/11/10 10:06:09;;;;;;;51.65;27.65;;;;;;;6.65;100.00;101996.84;5094461;28;20065;-70
2021/11/10 10:08:39;;;;;;;49.67;27.92;;;;;;;6.52;100.00;101985.59;5095456;28;20036;-76
2021/11/10 10:11:10;;;;;;;49.03;28.48;;;;;;;6.34;100.00;101988.50;5095608;28;20096;-74
2021/11/10 10:13:39;;;;;;;48.15;27.30;;;;;;;6.48;100.00;101986.53;5095275;28;20044;-71
2021/11/10 10:16:09;;;;;;;43.38;23.48;;;;;;;6.49;100.00;101986.50;5095264;28;20048;-70
2021/11/10 10:18:37;;;;;;;46.17;25.25;;;;;;;6.59;100.00;101985.47;5095487;28;20097;-71
2021/11/10 10:21:07;;;;;;;38.28;21.88;;;;;;;6.63;100.00;101986.28;5094383;28;20043;-71
2021/11/10 10:23:39;;;;;;;37.05;20.90;;;;;;;6.83;100.00;101984.16;5095187;28;20435;-72
2021/11/10 10:26:12;;;;;;;35.22;20.58;;;;;;;6.68;100.00;101981.78;5094618;28;20058;-72
2021/11/10 10:28:44;;;;;;;34.30;20.77;;;;;;;6.69;100.00;101986.19;5095574;28;20469;-71
2021/11/10 10:31:15;;;;;;;42.13;22.08;;;;;;;6.65;100.00;101976.50;5095079;28;20048;-73
2021/11/10 10:33:46;;;;;;;42.40;22.10;;;;;;;6.51;100.00;101983.84;5094235;28;20044;-76
2021/11/10 10:36:17;;;;;;;44.20;23.33;;;;;;;6.40;100.00;101980.47;5094903;28;20374;-71
2021/11/10 10:38:48;;;;;;;43.55;22.65;;;;;;;6.41;100.00;101982.22;5094357;28;20051;-70
2021/11/10 10:41:18;;;;;;;37.17;21.25;;;;;;;6.42;100.00;101983.97;5094929;28;20043;-71
2021/11/10 10:43:52;;;;;;;43.13;22.52;;;;;;;6.33;100.00;101974.38;5094321;28;20067;-72
2021/11/10 10:46:25;;;;;;;42.70;22.98;;;;;;;6.47;100.00;101968.91;5094816;28;20041;-74
2021/11/10 10:49:10;;;;;;;37.85;21.73;;;;;;;6.46;100.00;101969.75;5094395;28;20040;-70
2021/11/10 10:51:39;;;;;;;40.72;20.77;;;;;;;6.39;100.00;101963.72;5094651;28;20040;-73
2021/11/10 10:54:09;;;;;;;43.50;22.58;;;;;;;6.40;100.00;101959.28;5094387;28;20059;-70
2021/11/10 10:56:38;;;;;;;36.33;20.60;;;;;;;6.52;100.00;101954.66;5092691;28;20066;-71
2021/11/10 10:59:09;;;;;;;39.22;21.58;;;;;;;6.43;100.00;101960.09;5091931;28;20130;-68
2021/11/10 11:01:40;;;;;;;36.67;19.65;;;;;;;6.55;100.00;101953.72;5094454;28;20051;-72
2021/11/10 11:04:11;;;;;;;34.08;18.95;;;;;;;6.49;100.00;101949.41;5093212;28;20054;-72
2021/11/10 11:06:41;;;;;;;35.47;18.50;;;;;;;6.51;100.00;101941.41;5094354;28;20044;-72
2021/11/10 11:09:16;;;;;;;35.00;19.27;;;;;;;6.53;100.00;101947.56;5094076;28;20056;-68
2021/11/10 11:11:58;;;;;;;36.20;20.10;;;;;;;6.47;100.00;101940.59;5094179;28;20051;-72
2021/11/10 11:14:42;;;;;;;33.55;20.42;;;;;;;6.42;100.00;101936.25;5093684;28;20090;-73
2021/11/10 11:17:26;;;;;;;35.25;20.52;;;;;;;6.51;100.00;101936.13;5093508;28;20043;-70
2021/11/10 11:19:57;;;;;;;36.55;20.50;;;;;;;6.47;100.00;101929.13;5093163;28;20636;-68
2021/11/10 11:22:27;;;;;;;37.50;21.30;;;;;;;6.44;100.00;101934.47;5093493;28;20042;-69